Time;durP1;ratioP1;P1;durP2;ratioP2;P2;SDS_P1;SDS_P2;PMS_P1;PMS_P2;Temp;Humidity;BMP_temperature;BMP_pressure;BME280_temperature;BME280_humidity;BME280_pressure;Samples;Min_cycle;Max_cycle;Signal;HPM_P1;HPM_P2
2021/09/10 00:02:04;;;;;;;3.30;2.63;;;17.00;95.50;17.10;100368.00;;;;4976496;28;89411;-68
2021/09/10 00:04:30;;;;;;;3.38;2.83;;;17.00;95.60;17.10;100362.00;;;;4976421;28;117617;-65
2021/09/10 00:06:56;;;;;;;8.70;3.33;;;16.90;95.70;17.10;100363.00;;;;4976124;28;110275;-64
2021/09/10 00:09:22;;;;;;;5.20;2.90;;;17.00;95.90;17.10;100372.00;;;;4977043;28;87974;-64
2021/09/10 00:11:47;;;;;;;2.83;2.50;;;17.00;96.10;17.00;100362.00;;;;4976133;28;101984;-64
2021/09/10 00:14:13;;;;;;;4.80;3.13;;;16.90;96.30;17.00;100361.00;;;;4975705;28;118170;-65
2021/09/10 00:16:39;;;;;;;4.28;3.13;;;16.90;96.50;17.00;100365.00;;;;4976856;28;87924;-64
2021/09/10 00:19:05;;;;;;;4.30;3.15;;;16.90;96.70;17.00;100367.00;;;;4960587;28;88035;-64
2021/09/10 00:21:31;;;;;;;3.42;2.70;;;16.90;96.70;16.90;100364.00;;;;4976712;28;107404;-65
2021/09/10 00:23:56;;;;;;;3.28;2.92;;;16.80;96.90;16.90;100366.00;;;;4956634;28;117156;-64
2021/09/10 00:26:22;;;;;;;2.70;2.50;;;16.80;97.10;16.90;100368.00;;;;4977053;28;88821;-64
2021/09/10 00:28:48;;;;;;;3.10;2.80;;;16.80;97.30;16.80;100375.00;;;;4975687;28;108379;-64
2021/09/10 00:31:13;;;;;;;3.72;2.85;;;16.70;97.50;16.80;100367.00;;;;4975023;28;117784;-64
2021/09/10 00:33:39;;;;;;;3.00;2.60;;;16.70;97.70;16.80;100363.00;;;;4976221;28;87821;-64
2021/09/10 00:36:05;;;;;;;3.65;2.47;;;16.70;97.90;16.80;100367.00;;;;4976219;28;110926;-64
2021/09/10 00:38:31;;;;;;;3.50;2.80;;;16.70;98.10;16.80;100365.00;;;;4976461;28;87600;-64
2021/09/10 00:40:58;;;;;;;4.15;2.97;;;16.70;98.30;16.80;100367.00;;;;4976400;28;104494;-64
2021/09/10 00:43:24;;;;;;;3.15;2.42;;;16.60;98.50;16.80;100364.00;;;;4976496;28;89180;-64
2021/09/10 00:45:50;;;;;;;4.28;2.85;;;16.60;98.60;16.70;100373.00;;;;4977375;28;87977;-64
2021/09/10 00:48:20;;;;;;;4.78;2.70;;;16.60;98.70;16.70;100378.00;;;;4957497;28;108973;-64
2021/09/10 00:50:47;;;;;;;2.58;2.38;;;16.60;98.80;16.70;100369.00;;;;4976004;28;89050;-64
2021/09/10 00:53:14;;;;;;;3.40;2.40;;;16.60;98.90;16.70;100373.00;;;;4975693;28;89433;-64
2021/09/10 00:55:43;;;;;;;2.47;2.28;;;16.60;99.40;16.70;100377.00;;;;4975996;28;93414;-65
2021/09/10 00:58:08;;;;;;;4.82;3.17;;;16.60;99.20;16.60;100373.00;;;;4975080;28;90514;-64
2021/09/10 01:00:34;;;;;;;3.35;2.33;;;16.50;99.30;16.60;100376.00;;;;4975653;28;117736;-64
2021/09/10 01:03:00;;;;;;;7.95;2.78;;;16.50;99.50;16.60;100370.00;;;;4975138;28;118516;-64
2021/09/10 01:05:26;;;;;;;5.15;2.38;;;16.50;99.70;16.60;100373.00;;;;4957340;28;110148;-64
2021/09/10 01:07:52;;;;;;;2.47;1.98;;;16.50;99.80;16.60;100375.00;;;;4962487;28;86938;-64
2021/09/10 01:10:18;;;;;;;4.00;2.58;;;16.50;99.90;16.50;100385.00;;;;4955373;28;88724;-64
2021/09/10 01:12:45;;;;;;;5.55;3.00;;;16.40;99.90;16.50;100383.00;;;;4974409;28;117961;-65
2021/09/10 01:15:11;;;;;;;3.10;2.80;;;16.40;99.90;16.50;100380.00;;;;4957661;28;89219;-64
2021/09/10 01:17:38;;;;;;;3.22;1.98;;;16.40;99.90;16.50;100381.00;;;;4976213;28;87805;-64
2021/09/10 01:20:07;;;;;;;3.42;2.50;;;16.40;99.90;16.50;100378.00;;;;4975823;28;88032;-64
2021/09/10 01:22:33;;;;;;;5.63;2.28;;;16.40;99.90;16.50;100377.00;;;;4975202;28;96990;-64
2021/09/10 01:25:19;;;;;;;2.28;2.03;;;16.40;99.90;16.50;100387.00;;;;4974730;28;109266;-65
2021/09/10 01:27:55;;;;;;;4.40;2.20;;;16.40;99.90;16.50;100386.00;;;;4975937;28;87891;-65
2021/09/10 01:30:28;;;;;;;2.80;2.35;;;16.40;99.90;16.50;100369.00;;;;4976036;28;88209;-64
2021/09/10 01:32:54;;;;;;;2.47;2.20;;;16.40;99.90;16.50;100379.00;;;;4975330;28;102246;-64
2021/09/10 01:35:20;;;;;;;2.88;2.35;;;16.40;99.90;16.40;100375.00;;;;4975476;28;91413;-64
2021/09/10 01:37:47;;;;;;;3.28;2.33;;;16.30;99.90;16.40;100377.00;;;;4975703;28;87865;-64
2021/09/10 01:40:13;;;;;;;2.83;2.20;;;16.30;99.90;16.40;100375.00;;;;4974883;28;89026;-64
2021/09/10 01:42:40;;;;;;;3.33;2.53;;;16.30;99.90;16.30;100373.00;;;;4973975;28;89021;-64
2021/09/10 01:45:10;;;;;;;3.05;2.30;;;16.30;99.90;16.30;100367.00;;;;4976211;28;87978;-64
2021/09/10 01:47:36;;;;;;;2.92;2.65;;;16.20;99.90;16.30;100368.00;;;;4975300;28;87968;-65
2021/09/10 01:50:09;;;;;;;4.63;3.00;;;16.20;99.90;16.30;100380.00;;;;4957580;28;88113;-65
2021/09/10 01:52:35;;;;;;;2.72;2.30;;;16.20;99.90;16.30;100391.00;;;;4957326;28;88494;-64
2021/09/10 01:55:01;;;;;;;3.65;2.60;;;16.10;99.90;16.20;100381.00;;;;4976222;28;87776;-64
2021/09/10 01:57:27;;;;;;;3.80;2.33;;;16.20;99.90;16.20;100376.00;;;;4968511;28;109483;-64
2021/09/10 01:59:52;;;;;;;3.40;2.35;;;16.10;99.90;16.20;100381.00;;;;4965096;28;119291;-64
2021/09/10 02:02:18;;;;;;;3.28;2.50;;;16.10;99.90;16.20;100373.00;;;;4974726;28;118204;-64
2021/09/10 02:04:44;;;;;;;4.32;2.15;;;16.00;99.90;16.20;100377.00;;;;4974749;28;88595;-65
2021/09/10 02:07:10;;;;;;;2.40;2.17;;;16.10;99.90;16.20;100387.00;;;;4975406;28;88100;-64
2021/09/10 02:09:35;;;;;;;3.72;2.42;;;16.10;99.90;16.20;100386.00;;;;4976447;28;119084;-64
2021/09/10 02:12:05;;;;;;;3.58;2.15;;;16.10;99.90;16.20;100375.00;;;;4977775;28;118730;-65
2021/09/10 02:14:33;;;;;;;3.00;2.30;;;16.10;99.90;16.20;100381.00;;;;4978818;28;89815;-64
2021/09/10 02:16:59;;;;;;;6.85;2.72;;;16.10;99.90;16.20;100376.00;;;;4979286;28;87922;-64
2021/09/10 02:19:25;;;;;;;2.70;2.45;;;16.10;99.90;16.20;100386.00;;;;4961998;28;88111;-64
2021/09/10 02:21:51;;;;;;;5.05;3.10;;;16.10;99.90;16.10;100386.00;;;;4979044;28;87456;-64
2021/09/10 02:24:18;;;;;;;2.85;2.05;;;16.10;99.90;16.10;100381.00;;;;4977591;28;109403;-64
2021/09/10 02:26:45;;;;;;;4.45;2.30;;;16.00;99.90;16.10;100371.00;;;;4978989;28;87625;-65
2021/09/10 02:29:11;;;;;;;3.10;2.70;;;16.00;99.90;16.10;100371.00;;;;4977609;28;100174;-63
2021/09/10 02:31:37;;;;;;;3.20;2.35;;;16.00;99.90;16.10;100379.00;;;;4976842;28;118925;-64
2021/09/10 02:34:03;;;;;;;3.25;2.05;;;16.00;99.90;16.00;100363.00;;;;4961839;28;88005;-64
2021/09/10 02:36:29;;;;;;;5.40;2.25;;;15.90;99.90;16.00;100364.00;;;;4978159;28;106503;-64
2021/09/10 02:38:55;;;;;;;4.22;2.45;;;15.90;99.90;16.00;100361.00;;;;4977912;28;89083;-65
2021/09/10 02:41:21;;;;;;;4.05;2.20;;;16.00;99.90;16.10;100354.00;;;;4978087;28;88427;-64
2021/09/10 02:43:46;;;;;;;4.20;2.20;;;15.90;99.90;16.10;100365.00;;;;4978305;28;88274;-64
2021/09/10 02:46:12;;;;;;;6.65;2.70;;;16.00;99.90;16.10;100371.00;;;;4979600;28;87079;-64
2021/09/10 02:48:38;;;;;;;3.17;2.22;;;16.00;99.90;16.10;100363.00;;;;4977987;28;99027;-64
2021/09/10 02:51:04;;;;;;;5.18;2.95;;;15.90;99.90;16.00;100363.00;;;;4978135;28;87958;-64
2021/09/10 02:53:30;;;;;;;4.18;2.85;;;16.00;99.90;16.00;100364.00;;;;4977249;28;109995;-64
2021/09/10 02:56:00;;;;;;;6.70;2.63;;;15.90;99.90;16.00;100366.00;;;;4978111;28;100195;-63
2021/09/10 02:58:26;;;;;;;2.83;2.10;;;15.90;99.90;16.00;100370.00;;;;4977869;28;88484;-64
2021/09/10 03:00:52;;;;;;;2.92;2.22;;;15.90;99.90;16.00;100365.00;;;;4978419;28;87944;-64
2021/09/10 03:03:18;;;;;;;4.03;2.67;;;15.80;99.90;16.00;100374.00;;;;4977962;28;87727;-64
2021/09/10 03:05:43;;;;;;;2.60;2.35;;;15.80;99.90;15.90;100362.00;;;;4978361;28;87875;-64
2021/09/10 03:08:09;;;;;;;3.10;2.17;;;15.80;99.90;15.90;100363.00;;;;4977279;28;101580;-65
2021/09/10 03:10:35;;;;;;;6.35;2.60;;;15.80;99.90;16.00;100377.00;;;;4976970;28;116994;-65
2021/09/10 03:13:00;;;;;;;1.85;1.75;;;15.90;99.90;16.00;100373.00;;;;4978328;28;87785;-65
2021/09/10 03:15:26;;;;;;;3.42;2.03;;;15.90;99.90;16.00;100370.00;;;;4976755;28;109065;-65
2021/09/10 03:17:52;;;;;;;3.15;1.95;;;15.90;99.90;16.00;100374.00;;;;4976691;28;89708;-64
2021/09/10 03:20:18;;;;;;;3.60;2.10;;;15.90;99.90;16.00;100370.00;;;;4975528;28;118964;-65
2021/09/10 03:22:43;;;;;;;4.28;2.60;;;15.90;99.90;16.00;100374.00;;;;4976824;28;87819;-64
2021/09/10 03:25:10;;;;;;;3.75;2.88;;;15.90;99.90;16.00;100371.00;;;;4977130;28;103308;-64
2021/09/10 03:27:36;;;;;;;4.90;2.55;;;15.90;99.90;16.00;100379.00;;;;4967980;28;89043;-64
2021/09/10 03:30:07;;;;;;;7.00;2.63;;;15.90;99.90;16.00;100379.00;;;;4970712;28;88734;-64
2021/09/10 03:32:32;;;;;;;3.72;3.28;;;15.80;99.90;15.90;100372.00;;;;4977159;28;87514;-64
2021/09/10 03:34:58;;;;;;;2.17;1.88;;;15.80;99.90;15.90;100370.00;;;;4977292;28;108815;-64
2021/09/10 03:37:24;;;;;;;3.97;2.55;;;15.80;99.90;15.90;100377.00;;;;4970115;28;118167;-64
2021/09/10 03:39:49;;;;;;;4.82;2.25;;;15.80;99.90;16.00;100365.00;;;;4966186;28;115985;-64
2021/09/10 03:42:15;;;;;;;2.50;1.80;;;15.90;99.90;16.10;100366.00;;;;4976134;28;88798;-64
2021/09/10 03:44:41;;;;;;;2.38;1.80;;;16.00;99.90;16.20;100369.00;;;;4977770;28;87631;-64
2021/09/10 03:47:07;;;;;;;3.78;2.08;;;16.10;99.90;16.30;100366.00;;;;4975953;28;88870;-65
2021/09/10 03:49:34;;;;;;;2.63;1.95;;;16.10;99.90;16.40;100366.00;;;;4961845;28;110818;-65
2021/09/10 03:52:01;;;;;;;2.65;1.75;;;16.20;99.90;16.40;100361.00;;;;4976881;28;87788;-66
2021/09/10 03:54:26;;;;;;;3.83;1.80;;;16.20;99.50;16.50;100359.00;;;;4977726;28;87657;-65
2021/09/10 03:56:52;;;;;;;3.10;1.73;;;16.30;99.20;16.50;100365.00;;;;4975488;28;118778;-65
2021/09/10 03:59:18;;;;;;;2.78;1.95;;;16.40;98.80;16.50;100361.00;;;;4961023;28;88401;-66
2021/09/10 04:01:44;;;;;;;3.20;1.52;;;16.40;98.40;16.60;100360.00;;;;4977349;28;87705;-66
2021/09/10 04:04:10;;;;;;;1.52;1.42;;;16.50;98.00;16.70;100355.00;;;;4976227;28;107164;-65
2021/09/10 04:06:35;;;;;;;1.77;1.30;;;16.50;97.40;16.70;100347.00;;;;4985083;28;115494;-64
2021/09/10 04:09:01;;;;;;;1.52;1.42;;;16.60;96.80;16.80;100361.00;;;;4956922;28;119484;-66
2021/09/10 04:11:27;;;;;;;6.30;1.50;;;16.60;96.40;16.90;100356.00;;;;4976820;28;87713;-66
2021/09/10 04:13:53;;;;;;;1.27;1.17;;;16.70;96.30;16.90;100350.00;;;;4976107;28;106083;-67
2021/09/10 04:16:18;;;;;;;2.92;1.95;;;16.70;96.10;16.90;100362.00;;;;4976365;28;116712;-66
2021/09/10 04:18:44;;;;;;;3.47;1.92;;;16.80;95.90;16.90;100351.00;;;;4977160;28;88748;-66
2021/09/10 04:21:10;;;;;;;1.73;1.50;;;16.70;95.70;16.90;100338.00;;;;4976120;28;110821;-63
2021/09/10 04:23:35;;;;;;;2.47;1.65;;;16.80;95.40;16.90;100358.00;;;;4977076;28;87423;-63
2021/09/10 04:26:01;;;;;;;5.07;2.13;;;16.70;95.10;16.90;100355.00;;;;4976196;28;116031;-64
2021/09/10 04:28:27;;;;;;;2.03;1.77;;;16.80;95.00;16.90;100355.00;;;;4958842;28;117383;-64
2021/09/10 04:30:53;;;;;;;2.17;1.73;;;16.80;94.90;17.00;100368.00;;;;4975678;28;108406;-64
2021/09/10 04:33:21;;;;;;;2.78;1.42;;;16.80;94.70;17.00;100370.00;;;;4975572;28;87823;-67
2021/09/10 04:35:47;;;;;;;3.72;1.80;;;16.80;94.60;17.00;100363.00;;;;4976719;28;88071;-65
2021/09/10 04:38:13;;;;;;;1.88;1.42;;;16.80;94.40;17.00;100367.00;;;;4976829;28;93120;-64
2021/09/10 04:40:38;;;;;;;2.40;1.77;;;16.80;94.30;17.00;100371.00;;;;4977032;28;87802;-64
2021/09/10 04:43:04;;;;;;;1.83;1.55;;;17.00;94.30;17.00;100371.00;;;;4974046;28;106375;-65
2021/09/10 04:45:30;;;;;;;2.17;1.98;;;16.80;94.20;17.00;100376.00;;;;4975272;28;118358;-65
2021/09/10 04:47:55;;;;;;;1.90;1.75;;;16.80;94.10;17.00;100379.00;;;;4975474;28;117776;-64
2021/09/10 04:50:21;;;;;;;3.20;1.92;;;16.90;94.00;17.00;100389.00;;;;4975119;28;110466;-64
2021/09/10 04:52:47;;;;;;;3.30;1.38;;;16.90;94.00;17.00;100389.00;;;;4969614;28;100982;-64
2021/09/10 04:55:13;;;;;;;2.00;1.70;;;16.90;93.80;17.00;100380.00;;;;4951987;28;120132;-64
2021/09/10 04:57:39;;;;;;;1.67;1.38;;;16.90;93.70;17.10;100386.00;;;;4957600;28;89680;-65
2021/09/10 05:00:06;;;;;;;1.80;1.17;;;16.90;93.60;17.10;100385.00;;;;4960766;28;88007;-65
2021/09/10 05:02:32;;;;;;;2.17;1.63;;;16.90;93.50;17.10;100386.00;;;;4958343;28;87720;-65
2021/09/10 05:04:58;;;;;;;1.50;1.40;;;17.00;93.40;17.10;100391.00;;;;4953929;28;88263;-65
2021/09/10 05:07:24;;;;;;;2.75;1.52;;;17.00;93.30;17.20;100393.00;;;;4953204;28;87952;-65
2021/09/10 05:09:50;;;;;;;3.47;1.45;;;17.00;93.30;17.20;100381.00;;;;4960250;28;109835;-65
2021/09/10 05:12:16;;;;;;;2.20;1.42;;;17.10;93.30;17.30;100383.00;;;;4961464;28;87319;-68
2021/09/10 05:14:42;;;;;;;3.20;1.75;;;17.10;93.30;17.30;100388.00;;;;4953468;28;93666;-68
2021/09/10 05:17:10;;;;;;;3.33;1.85;;;17.10;93.30;17.30;100394.00;;;;4959433;28;87838;-67
2021/09/10 05:19:36;;;;;;;1.50;1.25;;;17.20;93.20;17.40;100400.00;;;;4960488;28;88635;-67
2021/09/10 05:22:02;;;;;;;2.90;1.45;;;17.20;93.20;17.50;100405.00;;;;4954824;28;104643;-66
2021/09/10 05:24:27;;;;;;;2.08;1.65;;;17.30;93.20;17.50;100397.00;;;;4954923;28;88303;-67
2021/09/10 05:26:53;;;;;;;2.28;1.40;;;17.40;93.10;17.60;100414.00;;;;4959564;28;117090;-67
2021/09/10 05:29:19;;;;;;;2.63;1.42;;;17.50;93.20;17.70;100414.00;;;;4952013;28;110132;-67
2021/09/10 05:31:45;;;;;;;1.80;1.65;;;17.50;93.10;17.80;100410.00;;;;4953017;28;88680;-67
2021/09/10 05:34:11;;;;;;;2.72;1.85;;;17.70;93.00;17.90;100418.00;;;;4957687;28;87745;-67
2021/09/10 05:36:38;;;;;;;2.92;1.77;;;17.70;92.90;18.00;100420.00;;;;4957695;28;88662;-68
2021/09/10 05:39:04;;;;;;;1.85;1.55;;;17.80;92.80;18.10;100415.00;;;;4948859;28;87852;-67
2021/09/10 05:41:30;;;;;;;3.13;1.88;;;17.90;92.70;18.30;100412.00;;;;4957592;28;87756;-67
2021/09/10 05:43:55;;;;;;;2.72;1.85;;;18.10;92.40;18.40;100415.00;;;;4951684;28;117121;-66
2021/09/10 05:46:21;;;;;;;2.28;1.73;;;18.20;92.10;18.50;100418.00;;;;4959879;28;88979;-67
2021/09/10 05:48:47;;;;;;;3.10;2.08;;;18.30;92.00;18.60;100431.00;;;;4956883;28;87573;-67
2021/09/10 05:51:13;;;;;;;1.80;1.23;;;18.40;91.80;18.80;100424.00;;;;4954815;28;109296;-67
2021/09/10 05:53:39;;;;;;;3.95;1.52;;;18.60;91.50;18.90;100434.00;;;;4953903;28;118080;-69
2021/09/10 05:56:05;;;;;;;6.40;2.10;;;18.70;91.30;19.00;100420.00;;;;4955097;28;88691;-66
2021/09/10 05:58:31;;;;;;;2.20;1.25;;;18.80;90.80;19.10;100430.00;;;;4953319;28;88006;-67
2021/09/10 06:00:57;;;;;;;2.00;1.80;;;18.90;90.70;19.30;100430.00;;;;4953115;28;87070;-67
2021/09/10 06:03:23;;;;;;;2.13;1.55;;;19.00;90.30;19.40;100436.00;;;;4957051;28;88282;-68
2021/09/10 06:05:48;;;;;;;2.47;1.40;;;19.20;90.30;19.60;100439.00;;;;4953283;28;118629;-70
2021/09/10 06:08:14;;;;;;;2.03;1.67;;;19.30;90.10;19.70;100446.00;;;;4952484;28;93575;-67
2021/09/10 06:10:41;;;;;;;3.28;2.28;;;19.50;89.80;19.80;100441.00;;;;4950230;28;109136;-66
2021/09/10 06:13:10;;;;;;;5.60;1.48;;;19.50;88.80;20.00;100442.00;;;;4951385;28;89002;-67
2021/09/10 06:15:36;;;;;;;2.47;1.65;;;19.70;88.50;20.10;100440.00;;;;4957488;28;87959;-69
2021/09/10 06:18:02;;;;;;;3.00;1.42;;;19.90;87.50;20.20;100438.00;;;;4950191;28;87930;-67
2021/09/10 06:20:28;;;;;;;1.83;1.60;;;20.00;86.80;20.30;100452.00;;;;4936980;28;87845;-68
2021/09/10 06:22:54;;;;;;;3.38;1.90;;;20.10;85.80;20.40;100440.00;;;;4958005;28;117626;-66
2021/09/10 06:25:20;;;;;;;2.72;1.90;;;20.20;85.60;20.50;100448.00;;;;4952547;28;88930;-68
2021/09/10 06:27:45;;;;;;;3.90;1.92;;;20.30;85.50;20.60;100449.00;;;;4954513;28;88101;-67
2021/09/10 06:30:11;;;;;;;2.25;1.42;;;20.40;85.20;20.60;100456.00;;;;4958148;28;87880;-67
2021/09/10 06:32:37;;;;;;;4.05;2.00;;;20.40;85.20;20.70;100448.00;;;;4951941;28;88875;-67
2021/09/10 06:35:04;;;;;;;4.90;1.70;;;20.50;85.00;20.70;100455.00;;;;4957494;28;88824;-68
2021/09/10 06:37:30;;;;;;;1.33;1.23;;;20.50;84.80;20.80;100460.00;;;;4953251;28;87689;-67
2021/09/10 06:39:56;;;;;;;4.05;1.70;;;20.60;84.90;20.90;100457.00;;;;4954186;28;110268;-65
2021/09/10 06:42:21;;;;;;;3.28;2.00;;;20.70;84.80;21.10;100460.00;;;;4949590;28;110531;-68
2021/09/10 06:44:51;;;;;;;2.60;1.65;;;20.80;84.50;21.20;100467.00;;;;4954964;28;88898;-67
2021/09/10 06:47:17;;;;;;;3.05;1.45;;;21.00;83.80;21.40;100469.00;;;;4957367;28;87840;-67
2021/09/10 06:49:42;;;;;;;1.90;1.60;;;21.10;83.70;21.60;100469.00;;;;4952809;28;93447;-69
2021/09/10 06:52:08;;;;;;;1.45;1.35;;;21.30;82.60;21.80;100475.00;;;;4952736;28;118863;-66
2021/09/10 06:54:34;;;;;;;2.35;1.60;;;21.50;82.10;21.90;100477.00;;;;4954146;28;118081;-64
2021/09/10 06:56:59;;;;;;;1.60;1.25;;;21.70;81.60;22.10;100470.00;;;;4953532;28;111331;-67
2021/09/10 06:59:25;;;;;;;2.42;1.85;;;21.80;81.10;22.40;100471.00;;;;4954775;28;107644;-67
2021/09/10 07:01:51;;;;;;;3.72;2.15;;;22.10;80.80;22.60;100478.00;;;;4963710;28;102615;-67
2021/09/10 07:04:16;;;;;;;1.75;1.65;;;22.30;80.10;22.90;100480.00;;;;4967864;28;103215;-68
2021/09/10 07:06:42;;;;;;;3.25;1.77;;;22.50;79.10;23.00;100481.00;;;;4969726;28;87880;-68
2021/09/10 07:09:08;;;;;;;1.92;1.17;;;22.70;77.60;23.20;100482.00;;;;4955684;28;87988;-68
2021/09/10 07:11:34;;;;;;;2.28;1.50;;;22.90;76.50;23.30;100488.00;;;;4971067;28;89014;-69
2021/09/10 07:14:02;;;;;;;2.15;1.58;;;22.90;76.00;23.40;100489.00;;;;4956604;28;100206;-67
2021/09/10 07:16:28;;;;;;;2.05;1.73;;;23.10;76.00;23.70;100484.00;;;;4956100;28;87685;-68
2021/09/10 07:18:53;;;;;;;2.15;1.67;;;23.60;74.50;23.80;100497.00;;;;4954483;28;93526;-67
2021/09/10 07:21:19;;;;;;;2.30;2.03;;;23.50;73.20;23.90;100488.00;;;;4954682;28;94048;-65
2021/09/10 07:23:45;;;;;;;3.10;2.22;;;23.60;72.60;24.00;100503.00;;;;4959973;28;118529;-68
2021/09/10 07:26:11;;;;;;;2.03;1.40;;;23.70;72.30;24.20;100502.00;;;;4954937;28;111724;-68
2021/09/10 07:28:37;;;;;;;3.53;1.63;;;23.80;72.00;24.30;100505.00;;;;4955496;28;87748;-68
2021/09/10 07:31:04;;;;;;;6.97;1.77;;;24.00;71.60;24.50;100515.00;;;;4959884;28;88620;-67
2021/09/10 07:33:31;;;;;;;3.00;1.80;;;24.10;71.60;24.70;100520.00;;;;4956817;28;88096;-68
2021/09/10 07:35:57;;;;;;;2.50;1.38;;;24.30;70.30;24.80;100510.00;;;;4954625;28;87931;-68
2021/09/10 07:38:22;;;;;;;2.20;1.98;;;24.40;69.90;24.90;100510.00;;;;4955226;28;86920;-67
2021/09/10 07:40:49;;;;;;;2.65;1.70;;;24.60;69.20;25.10;100516.00;;;;4958274;28;93626;-67
2021/09/10 07:43:14;;;;;;;2.67;1.90;;;24.80;68.90;25.30;100512.00;;;;4953063;28;89101;-68
2021/09/10 07:45:40;;;;;;;3.22;1.50;;;24.90;68.90;25.50;100512.00;;;;4954414;28;89188;-67
2021/09/10 07:48:06;;;;;;;2.40;1.70;;;25.10;67.60;25.70;100515.00;;;;4959110;28;88041;-67
2021/09/10 07:50:32;;;;;;;2.40;1.77;;;25.40;67.80;25.90;100506.00;;;;4959476;28;115800;-66
2021/09/10 07:52:57;;;;;;;3.17;2.13;;;25.80;66.30;26.10;100508.00;;;;4954722;28;88725;-67
2021/09/10 07:55:23;;;;;;;2.08;1.88;;;25.80;65.40;26.20;100510.00;;;;4954013;28;102327;-67
2021/09/10 07:57:49;;;;;;;1.35;1.25;;;25.90;64.20;26.40;100506.00;;;;4961542;28;88176;-67
2021/09/10 08:00:21;;;;;;;3.83;1.52;;;26.10;64.00;26.60;100511.00;;;;4953837;28;118511;-66
2021/09/10 08:02:47;;;;;;;3.53;1.95;;;26.30;62.90;26.70;100519.00;;;;4963837;28;87610;-69
2021/09/10 08:05:13;;;;;;;2.28;1.50;;;26.40;62.00;26.80;100518.00;;;;4954203;28;87708;-67
2021/09/10 08:07:39;;;;;;;2.72;1.67;;;26.50;61.90;26.90;100525.00;;;;4953655;28;90109;-67
2021/09/10 08:10:06;;;;;;;2.33;1.52;;;26.60;60.60;27.00;100535.00;;;;4951934;28;93728;-68
2021/09/10 08:12:31;;;;;;;4.13;1.80;;;26.70;60.40;27.00;100523.00;;;;4957066;28;88560;-67
2021/09/10 08:14:57;;;;;;;3.60;1.88;;;26.70;60.00;27.00;100532.00;;;;4954154;28;109730;-67
2021/09/10 08:17:23;;;;;;;3.03;2.05;;;26.70;60.30;27.10;100534.00;;;;4954830;28;87900;-68
2021/09/10 08:19:49;;;;;;;3.78;2.20;;;26.80;59.80;27.20;100535.00;;;;4953200;28;117871;-68
2021/09/10 08:22:17;;;;;;;2.92;1.88;;;26.80;59.80;27.20;100539.00;;;;4953463;28;88474;-67
2021/09/10 08:24:44;;;;;;;1.73;1.52;;;26.90;59.20;27.20;100543.00;;;;4961805;28;87634;-68
2021/09/10 08:27:10;;;;;;;2.03;1.80;;;26.90;59.50;27.20;100544.00;;;;4954811;28;87275;-67
2021/09/10 08:29:35;;;;;;;2.70;1.83;;;26.90;59.30;27.20;100542.00;;;;4954210;28;96452;-67
2021/09/10 08:32:01;;;;;;;2.05;1.35;;;26.90;59.50;27.20;100539.00;;;;4959434;28;118429;-67
2021/09/10 08:34:27;;;;;;;2.20;2.00;;;26.90;59.50;27.10;100552.00;;;;4953055;28;93090;-68
2021/09/10 08:36:52;;;;;;;1.67;1.58;;;26.90;59.20;26.90;100541.00;;;;4956485;28;107631;-67
2021/09/10 08:39:18;;;;;;;5.43;1.58;;;26.70;59.50;26.80;100540.00;;;;4960227;28;117040;-69
2021/09/10 08:41:44;;;;;;;2.80;1.98;;;26.60;59.80;26.90;100546.00;;;;4959743;28;95191;-67
2021/09/10 08:44:14;;;;;;;4.10;2.17;;;26.60;60.00;26.90;100548.00;;;;4953313;28;87798;-67
2021/09/10 08:46:40;;;;;;;2.40;2.13;;;26.70;60.70;27.10;100548.00;;;;4953216;28;88276;-67
2021/09/10 08:49:08;;;;;;;2.55;1.65;;;26.70;60.50;27.20;100538.00;;;;4952893;28;88943;-67
2021/09/10 08:51:34;;;;;;;2.33;1.92;;;26.80;61.00;27.30;100541.00;;;;4959271;28;89681;-66
2021/09/10 08:54:00;;;;;;;2.15;1.95;;;26.90;60.50;27.50;100542.00;;;;4955023;28;95443;-67
2021/09/10 08:56:25;;;;;;;2.20;1.58;;;27.10;60.10;27.60;100539.00;;;;4952434;28;107297;-69
2021/09/10 08:59:09;;;;;;;2.35;1.70;;;27.20;60.20;27.80;100550.00;;;;4951791;28;119639;-67
2021/09/10 09:01:53;;;;;;;4.35;1.98;;;27.40;60.20;27.90;100544.00;;;;4953452;28;88952;-68
2021/09/10 09:04:21;;;;;;;4.18;2.13;;;27.50;60.20;28.00;100546.00;;;;4953579;28;88562;-67
2021/09/10 09:06:52;;;;;;;2.78;2.35;;;27.60;59.80;28.00;100546.00;;;;4954076;28;87887;-67
2021/09/10 09:09:41;;;;;;;4.80;2.20;;;27.70;60.00;28.10;100544.00;;;;4953146;28;88731;-67
2021/09/10 09:12:32;;;;;;;2.95;2.53;;;27.70;60.10;28.20;100551.00;;;;4952907;28;87970;-70
2021/09/10 09:15:05;;;;;;;1.52;1.42;;;27.90;59.80;28.30;100543.00;;;;4953799;28;87739;-69
2021/09/10 09:17:41;;;;;;;4.28;2.17;;;27.90;59.70;28.50;100549.00;;;;4952865;28;86941;-68
2021/09/10 09:20:25;;;;;;;3.28;2.13;;;28.10;59.70;28.60;100539.00;;;;4952502;28;88008;-69
2021/09/10 09:23:03;;;;;;;4.20;2.13;;;28.20;59.20;28.80;100547.00;;;;4955711;28;87853;-68
2021/09/10 09:25:41;;;;;;;3.58;2.30;;;28.30;59.30;28.90;100548.00;;;;4963690;28;88708;-68
2021/09/10 09:28:27;;;;;;;2.75;2.25;;;28.50;59.50;28.90;100547.00;;;;4938613;28;88351;-68
2021/09/10 09:31:02;;;;;;;2.65;2.00;;;28.50;59.30;29.10;100545.00;;;;4954677;28;98695;-68
2021/09/10 09:33:45;;;;;;;3.25;2.13;;;28.70;59.30;29.30;100541.00;;;;4954384;28;88967;-68
2021/09/10 09:36:14;;;;;;;4.25;1.70;;;28.80;59.20;29.40;100533.00;;;;4953575;28;88738;-68
2021/09/10 09:38:42;;;;;;;1.83;1.70;;;28.90;59.20;29.60;100537.00;;;;4953069;28;87883;-69
2021/09/10 09:41:10;;;;;;;2.22;1.25;;;29.10;59.30;29.80;100542.00;;;;4952861;28;95312;-67
2021/09/10 09:43:46;;;;;;;2.60;2.10;;;29.20;59.10;30.00;100545.00;;;;4953390;28;87837;-68
2021/09/10 09:46:20;;;;;;;4.78;2.47;;;29.50;58.50;30.20;100537.00;;;;4953249;28;87855;-68
2021/09/10 09:48:49;;;;;;;4.10;2.42;;;29.60;57.90;30.30;100546.00;;;;4952827;28;91062;-68
2021/09/10 09:51:18;;;;;;;3.83;2.20;;;29.70;57.60;30.60;100542.00;;;;4953013;28;89907;-67
2021/09/10 09:53:46;;;;;;;4.45;2.42;;;30.00;57.60;30.90;100538.00;;;;4953132;28;88849;-67
2021/09/10 09:56:12;;;;;;;5.45;2.10;;;30.20;57.40;31.20;100544.00;;;;4952719;28;87741;-69
2021/09/10 09:58:41;;;;;;;2.67;2.03;;;30.50;56.90;31.50;100540.00;;;;4952936;28;87781;-69
2021/09/10 10:01:09;;;;;;;2.92;2.20;;;30.70;56.40;31.80;100544.00;;;;4952655;28;89118;-67
2021/09/10 10:03:35;;;;;;;2.83;2.17;;;31.10;56.20;31.90;100541.00;;;;4958846;28;88604;-68
2021/09/10 10:06:03;;;;;;;3.50;2.28;;;31.20;55.00;31.70;100544.00;;;;4952264;28;109338;-68
2021/09/10 10:09:08;;;;;;;2.83;2.10;;;31.20;55.10;31.50;100546.00;;;;4952670;28;87099;-68
2021/09/10 10:11:43;;;;;;;3.58;1.92;;;31.00;55.10;31.60;100546.00;;;;4951704;28;87978;-68
2021/09/10 10:14:14;;;;;;;4.55;2.10;;;31.00;55.20;31.70;100536.00;;;;4951962;28;88566;-68
2021/09/10 10:16:43;;;;;;;2.28;1.65;;;31.10;55.40;31.90;100542.00;;;;4953618;28;88629;-68
2021/09/10 10:19:38;;;;;;;4.40;2.33;;;31.20;55.50;32.20;100535.00;;;;4955751;28;87611;-67
2021/09/10 10:22:05;;;;;;;2.28;1.85;;;31.50;54.90;32.30;100542.00;;;;4954788;28;88047;-67
2021/09/10 10:24:55;;;;;;;2.08;1.88;;;31.70;54.10;32.30;100538.00;;;;4952572;28;87985;-67
2021/09/10 10:27:40;;;;;;;3.13;1.75;;;31.70;53.90;32.40;100537.00;;;;4950291;28;87803;-67
2021/09/10 10:30:14;;;;;;;2.80;1.80;;;31.70;53.70;32.50;100535.00;;;;4954228;28;87791;-69
2021/09/10 10:32:44;;;;;;;1.92;1.50;;;31.80;53.50;32.60;100537.00;;;;4952333;28;100424;-67
2021/09/10 10:35:26;;;;;;;3.70;2.35;;;31.90;53.80;32.90;100534.00;;;;4953985;28;94277;-69
2021/09/10 10:38:10;;;;;;;2.17;1.50;;;32.20;53.50;33.00;100536.00;;;;4948022;28;88004;-68
2021/09/10 10:40:51;;;;;;;2.15;1.80;;;32.40;52.30;32.90;100538.00;;;;4951261;28;87961;-69
2021/09/10 10:43:22;;;;;;;2.88;2.22;;;32.30;52.10;32.80;100528.00;;;;4952838;28;90171;-68
2021/09/10 10:45:48;;;;;;;3.08;1.77;;;32.20;52.30;32.90;100532.00;;;;4960390;28;91406;-68
2021/09/10 10:48:29;;;;;;;2.00;1.70;;;32.20;52.60;33.10;100532.00;;;;4963865;28;87616;-67